sensor_id;sensor_type;location;lat;lon;timestamp;P1;durP1;ratioP1;P2;durP2;ratioP2
3700;SDS011;1866;48.374;10.766;2023-04-10T00:00:47;106.25;;;11.00;;
3700;SDS011;1866;48.374;10.766;2023-04-10T00:03:20;101.53;;;10.60;;
3700;SDS011;1866;48.374;10.766;2023-04-10T00:05:48;101.68;;;9.98;;
3700;SDS011;1866;48.374;10.766;2023-04-10T00:08:16;101.43;;;9.68;;
3700;SDS011;1866;48.374;10.766;2023-04-10T00:10:43;102.07;;;10.00;;
3700;SDS011;1866;48.374;10.766;2023-04-10T00:13:09;104.55;;;10.25;;
3700;SDS011;1866;48.374;10.766;2023-04-10T00:15:36;101.13;;;9.93;;
3700;SDS011;1866;48.374;10.766;2023-04-10T00:18:03;99.78;;;8.40;;
3700;SDS011;1866;48.374;10.766;2023-04-10T00:20:30;99.93;;;9.15;;
3700;SDS011;1866;48.374;10.766;2023-04-10T00:22:57;103.07;;;9.77;;
3700;SDS011;1866;48.374;10.766;2023-04-10T00:25:25;107.05;;;11.07;;
3700;SDS011;1866;48.374;10.766;2023-04-10T00:27:52;104.03;;;9.77;;
3700;SDS011;1866;48.374;10.766;2023-04-10T00:30:19;103.55;;;10.40;;
3700;SDS011;1866;48.374;10.766;2023-04-10T00:32:46;99.90;;;9.43;;
3700;SDS011;1866;48.374;10.766;2023-04-10T00:35:13;99.25;;;9.13;;
3700;SDS011;1866;48.374;10.766;2023-04-10T00:37:40;100.78;;;9.18;;
3700;SDS011;1866;48.374;10.766;2023-04-10T00:40:07;108.95;;;10.52;;
3700;SDS011;1866;48.374;10.766;2023-04-10T00:42:35;102.40;;;10.18;;
3700;SDS011;1866;48.374;10.766;2023-04-10T00:45:03;100.70;;;9.80;;
3700;SDS011;1866;48.374;10.766;2023-04-10T00:47:30;103.47;;;10.20;;
3700;SDS011;1866;48.374;10.766;2023-04-10T00:49:58;102.20;;;10.00;;
3700;SDS011;1866;48.374;10.766;2023-04-10T00:52:25;100.90;;;10.55;;
3700;SDS011;1866;48.374;10.766;2023-04-10T00:54:52;107.60;;;11.50;;
3700;SDS011;1866;48.374;10.766;2023-04-10T00:57:19;101.75;;;9.68;;
3700;SDS011;1866;48.374;10.766;2023-04-10T00:59:47;104.25;;;11.00;;
3700;SDS011;1866;48.374;10.766;2023-04-10T01:02:16;103.97;;;10.25;;
3700;SDS011;1866;48.374;10.766;2023-04-10T01:04:44;106.80;;;10.65;;
3700;SDS011;1866;48.374;10.766;2023-04-10T01:07:14;107.32;;;10.73;;
3700;SDS011;1866;48.374;10.766;2023-04-10T01:09:47;101.55;;;10.02;;
3700;SDS011;1866;48.374;10.766;2023-04-10T01:12:27;104.90;;;10.15;;
3700;SDS011;1866;48.374;10.766;2023-04-10T01:15:09;103.68;;;10.13;;
3700;SDS011;1866;48.374;10.766;2023-04-10T01:17:40;103.32;;;10.23;;
3700;SDS011;1866;48.374;10.766;2023-04-10T01:20:11;106.82;;;11.15;;
3700;SDS011;1866;48.374;10.766;2023-04-10T01:22:45;99.35;;;9.80;;
3700;SDS011;1866;48.374;10.766;2023-04-10T01:25:28;100.93;;;10.30;;
3700;SDS011;1866;48.374;10.766;2023-04-10T01:28:10;99.72;;;8.95;;
3700;SDS011;1866;48.374;10.766;2023-04-10T01:30:58;100.25;;;9.65;;
3700;SDS011;1866;48.374;10.766;2023-04-10T01:33:28;100.22;;;9.32;;
3700;SDS011;1866;48.374;10.766;2023-04-10T01:36:02;98.15;;;9.13;;
3700;SDS011;1866;48.374;10.766;2023-04-10T01:38:31;98.20;;;8.75;;
3700;SDS011;1866;48.374;10.766;2023-04-10T01:40:59;104.90;;;9.70;;
3700;SDS011;1866;48.374;10.766;2023-04-10T01:43:27;99.32;;;9.90;;
3700;SDS011;1866;48.374;10.766;2023-04-10T01:45:58;106.97;;;10.60;;
3700;SDS011;1866;48.374;10.766;2023-04-10T01:48:26;103.80;;;10.02;;
3700;SDS011;1866;48.374;10.766;2023-04-10T01:50:53;100.50;;;9.85;;
3700;SDS011;1866;48.374;10.766;2023-04-10T01:53:21;101.43;;;9.23;;
3700;SDS011;1866;48.374;10.766;2023-04-10T01:55:49;104.20;;;10.43;;
3700;SDS011;1866;48.374;10.766;2023-04-10T01:58:17;100.93;;;9.32;;
3700;SDS011;1866;48.374;10.766;2023-04-10T02:00:44;103.07;;;9.82;;
3700;SDS011;1866;48.374;10.766;2023-04-10T02:03:12;118.30;;;10.60;;
3700;SDS011;1866;48.374;10.766;2023-04-10T02:05:43;101.82;;;9.32;;
3700;SDS011;1866;48.374;10.766;2023-04-10T02:08:18;101.38;;;9.20;;
3700;SDS011;1866;48.374;10.766;2023-04-10T02:10:51;102.70;;;9.90;;
3700;SDS011;1866;48.374;10.766;2023-04-10T02:13:23;102.07;;;9.77;;
3700;SDS011;1866;48.374;10.766;2023-04-10T02:15:54;104.07;;;10.57;;
3700;SDS011;1866;48.374;10.766;2023-04-10T02:18:24;106.45;;;10.57;;
3700;SDS011;1866;48.374;10.766;2023-04-10T02:20:52;98.35;;;9.27;;
3700;SDS011;1866;48.374;10.766;2023-04-10T02:23:19;100.15;;;9.43;;
3700;SDS011;1866;48.374;10.766;2023-04-10T02:25:47;97.80;;;8.50;;
3700;SDS011;1866;48.374;10.766;2023-04-10T02:28:14;98.53;;;9.10;;
3700;SDS011;1866;48.374;10.766;2023-04-10T02:30:41;99.75;;;9.45;;
3700;SDS011;1866;48.374;10.766;2023-04-10T02:33:08;107.78;;;9.77;;
3700;SDS011;1866;48.374;10.766;2023-04-10T02:35:36;99.22;;;8.77;;
3700;SDS011;1866;48.374;10.766;2023-04-10T02:38:03;102.32;;;9.52;;
3700;SDS011;1866;48.374;10.766;2023-04-10T02:40:30;99.55;;;9.88;;
3700;SDS011;1866;48.374;10.766;2023-04-10T02:42:57;99.10;;;9.77;;
3700;SDS011;1866;48.374;10.766;2023-04-10T02:45:23;97.82;;;8.55;;
3700;SDS011;1866;48.374;10.766;2023-04-10T02:47:50;110.28;;;9.45;;
3700;SDS011;1866;48.374;10.766;2023-04-10T02:50:17;99.40;;;9.10;;
3700;SDS011;1866;48.374;10.766;2023-04-10T02:52:45;101.72;;;9.95;;
3700;SDS011;1866;48.374;10.766;2023-04-10T02:55:12;100.18;;;8.65;;
3700;SDS011;1866;48.374;10.766;2023-04-10T02:57:39;106.13;;;9.70;;
3700;SDS011;1866;48.374;10.766;2023-04-10T03:00:07;98.97;;;9.48;;
3700;SDS011;1866;48.374;10.766;2023-04-10T03:02:34;101.25;;;10.05;;
3700;SDS011;1866;48.374;10.766;2023-04-10T03:05:01;102.55;;;10.05;;
3700;SDS011;1866;48.374;10.766;2023-04-10T03:07:28;100.85;;;9.93;;
3700;SDS011;1866;48.374;10.766;2023-04-10T03:09:57;99.30;;;9.43;;
3700;SDS011;1866;48.374;10.766;2023-04-10T03:12:24;98.93;;;8.88;;
3700;SDS011;1866;48.374;10.766;2023-04-10T03:14:51;103.57;;;9.45;;
3700;SDS011;1866;48.374;10.766;2023-04-10T03:17:18;98.72;;;8.90;;
3700;SDS011;1866;48.374;10.766;2023-04-10T03:19:44;102.80;;;10.15;;
3700;SDS011;1866;48.374;10.766;2023-04-10T03:22:11;105.82;;;9.40;;
3700;SDS011;1866;48.374;10.766;2023-04-10T03:24:38;108.50;;;9.50;;
3700;SDS011;1866;48.374;10.766;2023-04-10T03:27:06;99.45;;;9.38;;
3700;SDS011;1866;48.374;10.766;2023-04-10T03:29:33;96.97;;;8.82;;
3700;SDS011;1866;48.374;10.766;2023-04-10T03:32:00;98.82;;;9.00;;
3700;SDS011;1866;48.374;10.766;2023-04-10T03:34:27;98.70;;;8.93;;
3700;SDS011;1866;48.374;10.766;2023-04-10T03:36:54;101.60;;;10.55;;
3700;SDS011;1866;48.374;10.766;2023-04-10T03:39:21;101.70;;;9.52;;
3700;SDS011;1866;48.374;10.766;2023-04-10T03:41:48;99.03;;;9.27;;
3700;SDS011;1866;48.374;10.766;2023-04-10T03:44:16;98.53;;;9.70;;
3700;SDS011;1866;48.374;10.766;2023-04-10T03:46:43;98.93;;;9.38;;
3700;SDS011;1866;48.374;10.766;2023-04-10T03:49:10;103.43;;;10.38;;
3700;SDS011;1866;48.374;10.766;2023-04-10T03:51:37;98.95;;;10.13;;
3700;SDS011;1866;48.374;10.766;2023-04-10T03:54:04;98.03;;;8.80;;
3700;SDS011;1866;48.374;10.766;2023-04-10T03:56:30;99.20;;;9.98;;
3700;SDS011;1866;48.374;10.766;2023-04-10T03:58:57;99.38;;;9.52;;
3700;SDS011;1866;48.374;10.766;2023-04-10T04:01:25;100.03;;;9.43;;
3700;SDS011;1866;48.374;10.766;2023-04-10T04:03:52;96.43;;;8.77;;
3700;SDS011;1866;48.374;10.766;2023-04-10T04:06:19;103.90;;;9.93;;
3700;SDS011;1866;48.374;10.766;2023-04-10T04:08:46;97.82;;;8.70;;
3700;SDS011;1866;48.374;10.766;2023-04-10T04:11:13;102.18;;;9.40;;
3700;SDS011;1866;48.374;10.766;2023-04-10T04:13:40;103.35;;;9.88;;
3700;SDS011;1866;48.374;10.766;2023-04-10T04:16:07;99.93;;;9.98;;
3700;SDS011;1866;48.374;10.766;2023-04-10T04:18:36;100.22;;;10.40;;
3700;SDS011;1866;48.374;10.766;2023-04-10T04:21:03;103.65;;;9.73;;
3700;SDS011;1866;48.374;10.766;2023-04-10T04:23:32;101.28;;;10.20;;
3700;SDS011;1866;48.374;10.766;2023-04-10T04:25:59;99.68;;;10.00;;
3700;SDS011;1866;48.374;10.766;2023-04-10T04:28:26;98.10;;;8.68;;
3700;SDS011;1866;48.374;10.766;2023-04-10T04:30:53;98.18;;;9.40;;
3700;SDS011;1866;48.374;10.766;2023-04-10T04:33:19;101.50;;;9.40;;
3700;SDS011;1866;48.374;10.766;2023-04-10T04:35:48;98.10;;;9.60;;
3700;SDS011;1866;48.374;10.766;2023-04-10T04:38:14;99.10;;;9.02;;
3700;SDS011;1866;48.374;10.766;2023-04-10T04:40:44;102.03;;;9.88;;
3700;SDS011;1866;48.374;10.766;2023-04-10T04:43:10;100.40;;;9.70;;
3700;SDS011;1866;48.374;10.766;2023-04-10T04:45:38;99.53;;;9.82;;
3700;SDS011;1866;48.374;10.766;2023-04-10T04:48:05;102.38;;;9.88;;
3700;SDS011;1866;48.374;10.766;2023-04-10T04:50:32;99.03;;;8.90;;
3700;SDS011;1866;48.374;10.766;2023-04-10T04:53:00;99.10;;;9.82;;
3700;SDS011;1866;48.374;10.766;2023-04-10T04:55:27;100.00;;;10.10;;
3700;SDS011;1866;48.374;10.766;2023-04-10T04:57:54;101.85;;;9.70;;
3700;SDS011;1866;48.374;10.766;2023-04-10T05:00:21;99.00;;;9.27;;
3700;SDS011;1866;48.374;10.766;2023-04-10T05:02:48;104.18;;;8.95;;
3700;SDS011;1866;48.374;10.766;2023-04-10T05:05:14;100.93;;;9.93;;
3700;SDS011;1866;48.374;10.766;2023-04-10T05:07:41;105.55;;;9.68;;
3700;SDS011;1866;48.374;10.766;2023-04-10T05:10:10;100.10;;;9.43;;
3700;SDS011;1866;48.374;10.766;2023-04-10T05:12:36;103.72;;;9.52;;
3700;SDS011;1866;48.374;10.766;2023-04-10T05:15:06;105.85;;;11.10;;
3700;SDS011;1866;48.374;10.766;2023-04-10T05:17:33;105.47;;;9.68;;
3700;SDS011;1866;48.374;10.766;2023-04-10T05:20:00;104.13;;;9.10;;
3700;SDS011;1866;48.374;10.766;2023-04-10T05:22:27;107.50;;;9.53;;
3700;SDS011;1866;48.374;10.766;2023-04-10T05:24:54;104.60;;;9.10;;
3700;SDS011;1866;48.374;10.766;2023-04-10T05:27:22;104.70;;;9.10;;
3700;SDS011;1866;48.374;10.766;2023-04-10T05:29:49;104.47;;;7.73;;
3700;SDS011;1866;48.374;10.766;2023-04-10T05:32:16;106.23;;;8.30;;
3700;SDS011;1866;48.374;10.766;2023-04-10T05:34:43;106.67;;;8.50;;
3700;SDS011;1866;48.374;10.766;2023-04-10T05:37:09;106.37;;;8.70;;
3700;SDS011;1866;48.374;10.766;2023-04-10T05:39:37;105.37;;;8.57;;
3700;SDS011;1866;48.374;10.766;2023-04-10T05:42:03;104.03;;;8.70;;
3700;SDS011;1866;48.374;10.766;2023-04-10T05:44:31;106.40;;;9.40;;
3700;SDS011;1866;48.374;10.766;2023-04-10T05:46:58;105.57;;;8.90;;
3700;SDS011;1866;48.374;10.766;2023-04-10T05:49:25;105.33;;;8.87;;
3700;SDS011;1866;48.374;10.766;2023-04-10T05:51:52;108.20;;;9.60;;
3700;SDS011;1866;48.374;10.766;2023-04-10T05:54:19;104.30;;;9.30;;
3700;SDS011;1866;48.374;10.766;2023-04-10T05:56:45;105.47;;;9.60;;
3700;SDS011;1866;48.374;10.766;2023-04-10T05:59:12;106.50;;;9.60;;
3700;SDS011;1866;48.374;10.766;2023-04-10T06:01:40;103.77;;;9.20;;
3700;SDS011;1866;48.374;10.766;2023-04-10T06:04:07;107.70;;;9.53;;
3700;SDS011;1866;48.374;10.766;2023-04-10T06:06:34;104.67;;;9.07;;
3700;SDS011;1866;48.374;10.766;2023-04-10T06:09:01;109.90;;;11.47;;
3700;SDS011;1866;48.374;10.766;2023-04-10T06:11:28;103.43;;;9.07;;
3700;SDS011;1866;48.374;10.766;2023-04-10T06:13:55;104.43;;;8.97;;
3700;SDS011;1866;48.374;10.766;2023-04-10T06:16:22;104.93;;;10.30;;
3700;SDS011;1866;48.374;10.766;2023-04-10T06:18:51;103.60;;;9.30;;
3700;SDS011;1866;48.374;10.766;2023-04-10T06:21:18;108.33;;;10.00;;
3700;SDS011;1866;48.374;10.766;2023-04-10T06:23:45;102.97;;;9.87;;
3700;SDS011;1866;48.374;10.766;2023-04-10T06:26:11;110.27;;;10.43;;
3700;SDS011;1866;48.374;10.766;2023-04-10T06:28:38;106.90;;;10.40;;
3700;SDS011;1866;48.374;10.766;2023-04-10T06:31:06;104.53;;;9.30;;
3700;SDS011;1866;48.374;10.766;2023-04-10T06:33:33;105.37;;;10.63;;
3700;SDS011;1866;48.374;10.766;2023-04-10T06:36:02;105.80;;;9.73;;
3700;SDS011;1866;48.374;10.766;2023-04-10T06:38:30;107.00;;;10.47;;
3700;SDS011;1866;48.374;10.766;2023-04-10T06:41:01;109.63;;;8.97;;
3700;SDS011;1866;48.374;10.766;2023-04-10T06:43:28;110.40;;;9.70;;
3700;SDS011;1866;48.374;10.766;2023-04-10T06:45:56;104.67;;;9.63;;
3700;SDS011;1866;48.374;10.766;2023-04-10T06:48:23;104.53;;;9.83;;
3700;SDS011;1866;48.374;10.766;2023-04-10T06:50:49;110.60;;;9.33;;
3700;SDS011;1866;48.374;10.766;2023-04-10T06:53:18;103.27;;;8.60;;
3700;SDS011;1866;48.374;10.766;2023-04-10T06:55:44;106.53;;;9.83;;
3700;SDS011;1866;48.374;10.766;2023-04-10T06:58:11;102.60;;;9.10;;
3700;SDS011;1866;48.374;10.766;2023-04-10T07:00:38;105.83;;;9.37;;
3700;SDS011;1866;48.374;10.766;2023-04-10T07:03:05;106.53;;;9.20;;
3700;SDS011;1866;48.374;10.766;2023-04-10T07:05:32;101.20;;;9.23;;
3700;SDS011;1866;48.374;10.766;2023-04-10T07:08:00;103.00;;;8.80;;
3700;SDS011;1866;48.374;10.766;2023-04-10T07:10:28;104.53;;;8.77;;
3700;SDS011;1866;48.374;10.766;2023-04-10T07:12:55;106.50;;;10.57;;
3700;SDS011;1866;48.374;10.766;2023-04-10T07:15:22;106.87;;;9.80;;
3700;SDS011;1866;48.374;10.766;2023-04-10T07:17:49;108.20;;;10.57;;
3700;SDS011;1866;48.374;10.766;2023-04-10T07:20:16;104.00;;;8.70;;
3700;SDS011;1866;48.374;10.766;2023-04-10T07:22:43;102.37;;;9.03;;
3700;SDS011;1866;48.374;10.766;2023-04-10T07:25:10;105.77;;;8.87;;
3700;SDS011;1866;48.374;10.766;2023-04-10T07:27:39;107.07;;;9.97;;
3700;SDS011;1866;48.374;10.766;2023-04-10T07:30:07;103.37;;;9.03;;
3700;SDS011;1866;48.374;10.766;2023-04-10T07:32:34;105.80;;;9.43;;
3700;SDS011;1866;48.374;10.766;2023-04-10T07:35:04;103.60;;;9.23;;
3700;SDS011;1866;48.374;10.766;2023-04-10T07:37:31;103.93;;;9.20;;
3700;SDS011;1866;48.374;10.766;2023-04-10T07:39:58;102.80;;;8.53;;
3700;SDS011;1866;48.374;10.766;2023-04-10T07:42:26;105.10;;;8.73;;
3700;SDS011;1866;48.374;10.766;2023-04-10T07:44:54;103.67;;;8.57;;
3700;SDS011;1866;48.374;10.766;2023-04-10T07:47:21;101.87;;;7.93;;
3700;SDS011;1866;48.374;10.766;2023-04-10T07:49:47;107.80;;;10.30;;
3700;SDS011;1866;48.374;10.766;2023-04-10T07:52:14;111.53;;;9.10;;
3700;SDS011;1866;48.374;10.766;2023-04-10T07:54:41;104.13;;;7.93;;
3700;SDS011;1866;48.374;10.766;2023-04-10T07:57:08;102.50;;;7.30;;
3700;SDS011;1866;48.374;10.766;2023-04-10T07:59:35;104.43;;;8.23;;
3700;SDS011;1866;48.374;10.766;2023-04-10T08:02:03;105.00;;;8.00;;
3700;SDS011;1866;48.374;10.766;2023-04-10T08:04:30;103.07;;;7.80;;
3700;SDS011;1866;48.374;10.766;2023-04-10T08:06:57;102.70;;;7.30;;
3700;SDS011;1866;48.374;10.766;2023-04-10T08:09:24;102.90;;;7.90;;
3700;SDS011;1866;48.374;10.766;2023-04-10T08:11:51;102.37;;;7.80;;
3700;SDS011;1866;48.374;10.766;2023-04-10T08:14:17;105.77;;;8.53;;
3700;SDS011;1866;48.374;10.766;2023-04-10T08:16:44;105.17;;;7.50;;
3700;SDS011;1866;48.374;10.766;2023-04-10T08:19:12;102.97;;;7.17;;
3700;SDS011;1866;48.374;10.766;2023-04-10T08:21:39;100.37;;;6.50;;
3700;SDS011;1866;48.374;10.766;2023-04-10T08:24:06;101.27;;;7.00;;
3700;SDS011;1866;48.374;10.766;2023-04-10T08:26:33;100.53;;;6.93;;
3700;SDS011;1866;48.374;10.766;2023-04-10T08:29:00;101.73;;;7.30;;
3700;SDS011;1866;48.374;10.766;2023-04-10T08:31:27;102.60;;;7.07;;
3700;SDS011;1866;48.374;10.766;2023-04-10T08:33:54;102.07;;;7.73;;
3700;SDS011;1866;48.374;10.766;2023-04-10T08:36:22;104.20;;;7.20;;
3700;SDS011;1866;48.374;10.766;2023-04-10T08:38:52;102.10;;;7.27;;
3700;SDS011;1866;48.374;10.766;2023-04-10T08:41:19;101.10;;;7.00;;
3700;SDS011;1866;48.374;10.766;2023-04-10T08:43:46;101.87;;;6.97;;
3700;SDS011;1866;48.374;10.766;2023-04-10T08:46:14;104.00;;;6.87;;
3700;SDS011;1866;48.374;10.766;2023-04-10T08:48:43;101.67;;;6.67;;
3700;SDS011;1866;48.374;10.766;2023-04-10T08:51:13;103.70;;;7.40;;
3700;SDS011;1866;48.374;10.766;2023-04-10T08:53:46;101.67;;;7.10;;
3700;SDS011;1866;48.374;10.766;2023-04-10T08:56:16;101.30;;;6.80;;
3700;SDS011;1866;48.374;10.766;2023-04-10T08:58:45;102.37;;;7.27;;
3700;SDS011;1866;48.374;10.766;2023-04-10T09:01:13;102.10;;;7.40;;
3700;SDS011;1866;48.374;10.766;2023-04-10T09:03:41;102.47;;;7.57;;
3700;SDS011;1866;48.374;10.766;2023-04-10T09:06:08;103.60;;;7.83;;
3700;SDS011;1866;48.374;10.766;2023-04-10T09:08:34;105.07;;;7.10;;
3700;SDS011;1866;48.374;10.766;2023-04-10T09:11:03;102.80;;;6.90;;
3700;SDS011;1866;48.374;10.766;2023-04-10T09:13:34;103.93;;;7.43;;
3700;SDS011;1866;48.374;10.766;2023-04-10T09:16:02;103.40;;;7.50;;
3700;SDS011;1866;48.374;10.766;2023-04-10T09:18:40;101.83;;;7.47;;
3700;SDS011;1866;48.374;10.766;2023-04-10T09:21:11;102.57;;;7.47;;
3700;SDS011;1866;48.374;10.766;2023-04-10T09:23:40;105.70;;;7.43;;
3700;SDS011;1866;48.374;10.766;2023-04-10T09:26:22;105.17;;;7.67;;
3700;SDS011;1866;48.374;10.766;2023-04-10T09:28:59;102.83;;;7.23;;
3700;SDS011;1866;48.374;10.766;2023-04-10T09:31:28;103.67;;;7.33;;
3700;SDS011;1866;48.374;10.766;2023-04-10T09:34:06;102.30;;;7.47;;
3700;SDS011;1866;48.374;10.766;2023-04-10T09:36:34;101.07;;;7.00;;
3700;SDS011;1866;48.374;10.766;2023-04-10T09:39:02;105.83;;;7.60;;
3700;SDS011;1866;48.374;10.766;2023-04-10T09:41:30;101.60;;;7.00;;
3700;SDS011;1866;48.374;10.766;2023-04-10T09:44:06;103.37;;;7.47;;
3700;SDS011;1866;48.374;10.766;2023-04-10T09:46:34;102.50;;;6.73;;
3700;SDS011;1866;48.374;10.766;2023-04-10T09:49:01;102.67;;;6.80;;
3700;SDS011;1866;48.374;10.766;2023-04-10T09:51:31;102.10;;;6.80;;
3700;SDS011;1866;48.374;10.766;2023-04-10T09:53:59;102.87;;;6.60;;
3700;SDS011;1866;48.374;10.766;2023-04-10T09:56:26;103.17;;;7.17;;
3700;SDS011;1866;48.374;10.766;2023-04-10T09:58:56;102.87;;;6.40;;
3700;SDS011;1866;48.374;10.766;2023-04-10T10:01:24;103.10;;;6.63;;
3700;SDS011;1866;48.374;10.766;2023-04-10T10:03:53;102.10;;;6.80;;
3700;SDS011;1866;48.374;10.766;2023-04-10T10:06:20;102.27;;;6.37;;
3700;SDS011;1866;48.374;10.766;2023-04-10T10:08:48;102.70;;;7.10;;
3700;SDS011;1866;48.374;10.766;2023-04-10T10:11:17;104.27;;;6.77;;
3700;SDS011;1866;48.374;10.766;2023-04-10T10:13:48;101.30;;;5.90;;
3700;SDS011;1866;48.374;10.766;2023-04-10T10:16:20;104.10;;;6.60;;
3700;SDS011;1866;48.374;10.766;2023-04-10T10:18:56;102.23;;;6.37;;
3700;SDS011;1866;48.374;10.766;2023-04-10T10:21:27;103.87;;;6.60;;
3700;SDS011;1866;48.374;10.766;2023-04-10T10:23:55;101.97;;;6.00;;
3700;SDS011;1866;48.374;10.766;2023-04-10T10:26:24;101.80;;;6.60;;
3700;SDS011;1866;48.374;10.766;2023-04-10T10:28:53;101.67;;;6.00;;
3700;SDS011;1866;48.374;10.766;2023-04-10T10:31:24;100.77;;;5.80;;
3700;SDS011;1866;48.374;10.766;2023-04-10T10:33:56;106.20;;;7.23;;
3700;SDS011;1866;48.374;10.766;2023-04-10T10:36:26;102.40;;;5.77;;
3700;SDS011;1866;48.374;10.766;2023-04-10T10:38:56;102.70;;;6.10;;
3700;SDS011;1866;48.374;10.766;2023-04-10T10:41:43;100.10;;;5.77;;
3700;SDS011;1866;48.374;10.766;2023-04-10T10:44:19;101.50;;;6.30;;
3700;SDS011;1866;48.374;10.766;2023-04-10T10:46:57;101.30;;;5.87;;
3700;SDS011;1866;48.374;10.766;2023-04-10T10:57:59;103.17;;;6.40;;
3700;SDS011;1866;48.374;10.766;2023-04-10T11:03:28;102.13;;;6.07;;
3700;SDS011;1866;48.374;10.766;2023-04-10T11:05:56;104.23;;;6.97;;
3700;SDS011;1866;48.374;10.766;2023-04-10T11:08:39;101.60;;;6.07;;
3700;SDS011;1866;48.374;10.766;2023-04-10T11:11:12;100.07;;;5.70;;
3700;SDS011;1866;48.374;10.766;2023-04-10T11:13:41;100.27;;;5.90;;
3700;SDS011;1866;48.374;10.766;2023-04-10T11:19:12;99.73;;;5.57;;
3700;SDS011;1866;48.374;10.766;2023-04-10T11:27:42;100.27;;;5.40;;
3700;SDS011;1866;48.374;10.766;2023-04-10T11:30:28;100.13;;;5.90;;
3700;SDS011;1866;48.374;10.766;2023-04-10T11:32:59;100.67;;;5.70;;
3700;SDS011;1866;48.374;10.766;2023-04-10T11:35:29;100.27;;;6.20;;
3700;SDS011;1866;48.374;10.766;2023-04-10T11:38:08;99.93;;;5.90;;
3700;SDS011;1866;48.374;10.766;2023-04-10T11:40:51;102.43;;;5.77;;
3700;SDS011;1866;48.374;10.766;2023-04-10T11:43:19;100.07;;;5.50;;
3700;SDS011;1866;48.374;10.766;2023-04-10T11:45:46;98.77;;;5.63;;
3700;SDS011;1866;48.374;10.766;2023-04-10T11:48:13;98.47;;;5.70;;
3700;SDS011;1866;48.374;10.766;2023-04-10T11:50:42;99.27;;;5.33;;
3700;SDS011;1866;48.374;10.766;2023-04-10T11:53:18;100.10;;;6.03;;
3700;SDS011;1866;48.374;10.766;2023-04-10T11:55:46;99.73;;;5.67;;
3700;SDS011;1866;48.374;10.766;2023-04-10T11:58:20;101.83;;;6.00;;
3700;SDS011;1866;48.374;10.766;2023-04-10T12:00:57;106.40;;;6.20;;
3700;SDS011;1866;48.374;10.766;2023-04-10T12:03:32;103.00;;;5.80;;
3700;SDS011;1866;48.374;10.766;2023-04-10T12:06:01;102.60;;;6.20;;
3700;SDS011;1866;48.374;10.766;2023-04-10T12:08:31;99.67;;;5.60;;
3700;SDS011;1866;48.374;10.766;2023-04-10T12:10:59;99.83;;;5.87;;
3700;SDS011;1866;48.374;10.766;2023-04-10T12:13:26;99.57;;;5.60;;
3700;SDS011;1866;48.374;10.766;2023-04-10T12:15:56;99.80;;;5.20;;
3700;SDS011;1866;48.374;10.766;2023-04-10T12:18:23;103.10;;;5.60;;
3700;SDS011;1866;48.374;10.766;2023-04-10T12:20:51;103.50;;;5.43;;
3700;SDS011;1866;48.374;10.766;2023-04-10T12:23:21;102.23;;;5.80;;
3700;SDS011;1866;48.374;10.766;2023-04-10T12:25:49;99.60;;;5.40;;
3700;SDS011;1866;48.374;10.766;2023-04-10T12:28:16;99.87;;;5.60;;
3700;SDS011;1866;48.374;10.766;2023-04-10T12:30:47;100.40;;;5.80;;
3700;SDS011;1866;48.374;10.766;2023-04-10T12:33:19;100.50;;;6.30;;
3700;SDS011;1866;48.374;10.766;2023-04-10T12:35:47;100.10;;;5.90;;
3700;SDS011;1866;48.374;10.766;2023-04-10T12:38:14;101.20;;;6.03;;
3700;SDS011;1866;48.374;10.766;2023-04-10T12:40:58;100.97;;;5.73;;
3700;SDS011;1866;48.374;10.766;2023-04-10T12:43:29;101.70;;;6.40;;
3700;SDS011;1866;48.374;10.766;2023-04-10T12:45:56;101.30;;;5.80;;
3700;SDS011;1866;48.374;10.766;2023-04-10T12:48:23;101.97;;;6.00;;
3700;SDS011;1866;48.374;10.766;2023-04-10T12:50:51;101.20;;;6.13;;
3700;SDS011;1866;48.374;10.766;2023-04-10T12:53:18;104.30;;;5.67;;
3700;SDS011;1866;48.374;10.766;2023-04-10T12:55:55;99.60;;;5.53;;
3700;SDS011;1866;48.374;10.766;2023-04-10T12:58:24;101.03;;;5.80;;
3700;SDS011;1866;48.374;10.766;2023-04-10T13:00:53;100.60;;;5.60;;
3700;SDS011;1866;48.374;10.766;2023-04-10T13:03:20;100.40;;;5.63;;
3700;SDS011;1866;48.374;10.766;2023-04-10T13:05:48;99.73;;;5.40;;
3700;SDS011;1866;48.374;10.766;2023-04-10T13:08:15;102.87;;;5.40;;
3700;SDS011;1866;48.374;10.766;2023-04-10T13:10:42;99.63;;;5.40;;
3700;SDS011;1866;48.374;10.766;2023-04-10T13:13:10;99.60;;;5.37;;
3700;SDS011;1866;48.374;10.766;2023-04-10T13:15:39;102.17;;;5.80;;
3700;SDS011;1866;48.374;10.766;2023-04-10T13:18:06;101.03;;;5.67;;
3700;SDS011;1866;48.374;10.766;2023-04-10T13:20:34;99.93;;;5.87;;
3700;SDS011;1866;48.374;10.766;2023-04-10T13:23:02;100.50;;;5.60;;
3700;SDS011;1866;48.374;10.766;2023-04-10T13:25:30;106.33;;;5.80;;
3700;SDS011;1866;48.374;10.766;2023-04-10T13:27:58;100.90;;;5.77;;
3700;SDS011;1866;48.374;10.766;2023-04-10T13:30:27;101.47;;;5.53;;
3700;SDS011;1866;48.374;10.766;2023-04-10T13:32:54;100.33;;;5.20;;
3700;SDS011;1866;48.374;10.766;2023-04-10T13:35:21;100.47;;;5.40;;
3700;SDS011;1866;48.374;10.766;2023-04-10T13:37:48;98.30;;;4.73;;
3700;SDS011;1866;48.374;10.766;2023-04-10T13:40:17;102.70;;;6.40;;
3700;SDS011;1866;48.374;10.766;2023-04-10T13:42:45;101.17;;;5.70;;
3700;SDS011;1866;48.374;10.766;2023-04-10T13:45:12;100.50;;;5.60;;
3700;SDS011;1866;48.374;10.766;2023-04-10T13:47:40;100.53;;;5.23;;
3700;SDS011;1866;48.374;10.766;2023-04-10T13:50:07;98.93;;;5.20;;
3700;SDS011;1866;48.374;10.766;2023-04-10T13:52:35;99.70;;;4.93;;
3700;SDS011;1866;48.374;10.766;2023-04-10T13:55:02;100.30;;;6.00;;
3700;SDS011;1866;48.374;10.766;2023-04-10T13:57:29;100.87;;;5.50;;
3700;SDS011;1866;48.374;10.766;2023-04-10T13:59:56;101.57;;;5.77;;
3700;SDS011;1866;48.374;10.766;2023-04-10T14:02:23;98.57;;;4.97;;
3700;SDS011;1866;48.374;10.766;2023-04-10T14:04:51;100.10;;;5.40;;
3700;SDS011;1866;48.374;10.766;2023-04-10T14:07:18;99.47;;;4.87;;
3700;SDS011;1866;48.374;10.766;2023-04-10T14:09:44;97.07;;;4.80;;
3700;SDS011;1866;48.374;10.766;2023-04-10T14:12:12;97.97;;;5.30;;
3700;SDS011;1866;48.374;10.766;2023-04-10T14:14:40;99.17;;;5.23;;
3700;SDS011;1866;48.374;10.766;2023-04-10T14:17:07;99.50;;;5.40;;
3700;SDS011;1866;48.374;10.766;2023-04-10T14:19:35;97.60;;;5.07;;
3700;SDS011;1866;48.374;10.766;2023-04-10T14:22:04;99.80;;;5.40;;
3700;SDS011;1866;48.374;10.766;2023-04-10T14:24:31;99.97;;;5.90;;
3700;SDS011;1866;48.374;10.766;2023-04-10T14:26:58;100.63;;;5.57;;
3700;SDS011;1866;48.374;10.766;2023-04-10T14:29:26;99.47;;;5.20;;
3700;SDS011;1866;48.374;10.766;2023-04-10T14:31:53;99.00;;;4.90;;
3700;SDS011;1866;48.374;10.766;2023-04-10T14:34:19;99.00;;;5.13;;
3700;SDS011;1866;48.374;10.766;2023-04-10T14:36:46;97.87;;;5.07;;
3700;SDS011;1866;48.374;10.766;2023-04-10T14:39:14;99.07;;;5.07;;
3700;SDS011;1866;48.374;10.766;2023-04-10T14:41:41;99.60;;;5.20;;
3700;SDS011;1866;48.374;10.766;2023-04-10T14:44:08;100.30;;;5.60;;
3700;SDS011;1866;48.374;10.766;2023-04-10T14:46:35;99.80;;;5.70;;
3700;SDS011;1866;48.374;10.766;2023-04-10T14:49:02;99.17;;;5.07;;
3700;SDS011;1866;48.374;10.766;2023-04-10T14:51:29;100.77;;;5.93;;
3700;SDS011;1866;48.374;10.766;2023-04-10T14:53:56;100.40;;;5.70;;
3700;SDS011;1866;48.374;10.766;2023-04-10T14:56:24;100.23;;;5.80;;
3700;SDS011;1866;48.374;10.766;2023-04-10T14:58:51;99.00;;;5.40;;
3700;SDS011;1866;48.374;10.766;2023-04-10T15:01:17;99.07;;;5.30;;
3700;SDS011;1866;48.374;10.766;2023-04-10T15:03:45;101.00;;;5.50;;